National Weather Service Raw Text Product

Displaying AFOS PIL: TAFALO Received: 2018-05-17 11:30 UTC


552 
FTUS43 KDMX 171130
TAFALO
TAF
KALO 171130Z 1712/1812 00000KT P6SM FEW250
     FM172000 12007KT P6SM SCT250
     FM180300 09007KT P6SM FEW250=